This demonstration page uses our WeatherBlox Daily Observations layout. Learn more.

41.86663, -103.66717

Hourly Observations for May 24, 2019

Temp ( °F °C ) Dew Point ( °F °C ) Humidity (%) Winds ( mph kmh ) Pressure ( in mb ) Visibility ( mi km ) Precip ( " mm )
12:53 am 00:53 Mostly Clear 43 6.1 42 5.6 97 97 SE 7 11 29.85 1011 10 16.09344 0 0
1:53 am 01:53 Clear 44 6.7 41 5 89 89 SSW 7 11 29.83 1010 10 16.09344 0 0
2:53 am 02:53 Clear 44 6.7 41 5 89 89 SW 9 15 29.8 1009 10 16.09344 0 0
3:53 am 03:53 Clear 43 6.1 41 5 93 93 SSW 9 15 29.8 1009 10 16.09344 0 0
4:53 am 04:53 Clear 43 6.1 41 5 93 93 SSW 12 19 29.8 1009 10 16.09344 0 0
5:53 am 05:53 Sunny 44 6.7 39 3.9 83 83 SSW 10 17 29.8 1009 10 16.09344 0 0
6:53 am 06:53 Sunny 47 8.3 41 5 80 80 SSW 14 22 29.8 1009 10 16.09344 0 0
7:53 am 07:53 Sunny 52 11.1 43 6.1 72 72 SW 13 20 29.8 1009 10 16.09344 0 0
8:53 am 08:53 Sunny 58 14.4 39 3.9 50 50 SW 17 28 29.8 1009 10 16.09344 0 0
9:53 am 09:53 Sunny 62 16.7 42 5.6 48 48 SW 14 22 29.77 1008 10 16.09344 0 0
10:53 am 10:53 Mostly Sunny 65 18.3 40 4.4 40 40 WSW 21 33 29.77 1008 10 16.09344 0 0
11:45 am 11:45 Mostly Cloudy 66 18.9 42 5.6 42 42 WNW 13 20 29.68 1005 10 16.09344 0 0
11:53 am 11:53 Cloudy 66 18.9 41 5 40 40 WNW 10 17 29.77 1008 10 16.09344 0 0
12:53 pm 12:53 Mostly Cloudy 66 18.9 39 3.9 37 37 W 16 26 29.77 1008 10 16.09344 0 0
1:53 pm 13:53 Mostly Cloudy 67 19.4 39 3.9 36 36 W 16 26 29.74 1007 10 16.09344 0 0
2:53 pm 14:53 Mostly Cloudy 72 22.2 41 5 33 33 W 17 28 29.74 1007 10 16.09344 0 0
3:53 pm 15:53 Cloudy 67 19.4 38 3.3 35 35 SW 10 17 29.77 1008 10 16.09344 0 0
4:53 pm 16:53 Cloudy with Light Rain 61 16.1 43 6.1 52 52 VRB 5 7 29.8 1009 8 12.874752 0.001 0.001
5:53 pm 17:53 Cloudy with Rain 61 16.1 44 6.7 54 54 SW 12 19 29.83 1010 6 9.656064 0.01 0.254
6:53 pm 18:53 Mostly Cloudy with Light Rain 59 15 49 9.4 69 69 N 5 7 29.83 1010 10 16.09344 0.001 0.001
7:53 pm 19:53 Cloudy 58 14.4 49 9.4 72 72 ESE 3 6 29.8 1009 10 16.09344 0.001 0.001
8:53 pm 20:53 Clear 53 11.7 46 7.8 77 77 N 3 6 29.8 1009 10 16.09344 0 0
9:53 pm 21:53 Clear 48 8.9 44 6.7 86 86 NNW 6 9 29.83 1010 10 16.09344 0 0
10:53 pm 22:53 Clear 46 7.8 42 5.6 86 86 NW 6 9 29.83 1010 10 16.09344 0 0
11:53 pm 23:53 Clear 47 8.3 40 4.4 77 77 Calm 29.85 1011 10 16.09344 0 0

Powered by AerisWeather